Flight Track Log - Related Links

Times and Time Zones

All times are in EDT time to prevent confusion due to time zone crossing. See the LOF3405 flight status page for this flight to view local times or setup timezone preferences in your user account.

Time Position Orientation Groundspeed Altitude Reporting Facility
EDT Latitude Longitude Course Direction KTS MPH feet Rate Location/Type
Tue 11:40:25 AM 36.1761 -95.8839 171° South 164 189 1,800  Level Kansas City Center
Tue 11:41:26 AM 36.1242 -95.8908 186° South 199 229 3,700 1,673 Climbing Kansas City Center
Tue 11:42:09 AM 36.0919 -95.8994 192° South 203 234 4,700 1,770 Climbing Kansas City Center
Tue 11:42:27 AM 36.0650 -95.9114 200° South 235 270 5,500 1,645 Climbing Kansas City Center
Tue 11:43:11 AM 36.0283 -95.9206 191° South 228 262 6,400 1,770 Climbing Kansas City Center
Tue 11:43:28 AM 35.9956 -95.9333 198° South 267 307 7,300 1,935 Climbing Kansas City Center
Tue 11:44:00 AM 35.6618 -95.8377 208° Southwest  Level Estimated
Tue 11:44:13 AM 35.9547 -95.9439 192° South 260 299 8,400  Level Kansas City Center
Tue 11:45:00 AM 35.5545 -95.8277 197° South  Level Estimated
Tue 11:45:15 AM 35.8653 -95.9736 195° South 273 314 10,700  Level Kansas City Center
Tue 11:46:17 AM 35.7808 -96.0006 195° South 300 345 11,800 1,016 Climbing Kansas City Center
Tue 11:47:19 AM 35.6883 -96.0311 195° South 332 382 12,800 968 Climbing Kansas City Center
Tue 11:48:21 AM 35.5911 -96.0628 195° South 352 405 13,800 1,113 Climbing Kansas City Center
Tue 11:49:23 AM 35.4797 -96.0986 195° South 365 420 15,100 1,210 Climbing Kansas City Center
Tue 11:50:25 AM 35.3781 -96.1308 194° South 370 426 16,300 1,152 Climbing Kansas City Center
Tue 11:51:28 AM 35.2761 -96.1631 194° South 374 430 17,500 1,152 Climbing Kansas City Center
Tue 11:52:30 AM 35.1742 -96.1967 195° South 375 432 18,700 1,161 Climbing Fort Worth Center
Tue 11:53:32 AM 35.0703 -96.2297 195° South 381 438 19,900 1,306 Climbing Fort Worth Center
Tue 11:54:34 AM 34.9456 -96.2694 195° South 383 441 21,400 1,296 Climbing Fort Worth Center
Tue 11:55:37 AM 34.8403 -96.3014 194° South 387 445 22,600 1,056 Climbing Fort Worth Center
Tue 11:56:39 AM 34.7325 -96.3372 195° South 395 455 23,600 968 Climbing Fort Worth Center
Tue 11:57:41 AM 34.6231 -96.3700 194° South 400 460 24,600 968 Climbing Fort Worth Center
Tue 11:58:43 AM 34.5133 -96.4042 194° South 403 464 25,600 677 Climbing Fort Worth Center
Tue 11:59:45 AM 34.4008 -96.4403 195° South 412 474 26,000 194 Climbing Fort Worth Center
Tue 12:00:47 PM 34.2606 -96.4831 194° South 432 497 26,000  Level Fort Worth Center
Tue 12:01:51 PM 34.1381 -96.5217 195° South 446 513 26,000  Level Fort Worth Center
Tue 12:02:53 PM 34.0069 -96.5628 195° South 467 537 26,000  Level Fort Worth Center
Tue 12:03:55 PM 33.8803 -96.6028 195° South 468 539 26,000  Level Fort Worth Center
Tue 12:04:57 PM 33.7517 -96.6414 194° South 472 543 26,000  Level Fort Worth Center
Tue 12:05:59 PM 33.6239 -96.6814 195° South 473 544 26,000  Level Fort Worth Center
Tue 12:07:01 PM 33.4944 -96.7192 194° South 475 547 26,000  Level Fort Worth Center
Tue 12:08:04 PM 33.3408 -96.7661 194° South 474 545 26,000  Level Fort Worth Center
Tue 12:09:06 PM 33.2133 -96.8058 195° South 474 545 26,000  Level Fort Worth Center
Tue 12:10:08 PM 33.0867 -96.8442 194° South 470 541 26,000 -48 Level Fort Worth Center
Tue 12:11:10 PM 32.9653 -96.9006 201° Southwest 460 529 25,900  Descending Fort Worth Center
Tue 12:12:12 PM 32.8456 -96.9661 205° Southwest 460 529 26,000 48 Climbing Fort Worth Center
Tue 12:13:14 PM 32.7275 -97.0333 206° Southwest 460 529 26,000  Level Fort Worth Center
Tue 12:14:17 PM 32.6103 -97.0994 205° Southwest 461 531 26,000 -48 Level Fort Worth Center
Tue 12:15:19 PM 32.4708 -97.1764 205° Southwest 460 529 25,900  Descending Fort Worth Center
Tue 12:16:21 PM 32.3478 -97.1569 172° South 456 525 26,000 48 Climbing Fort Worth Center
Tue 12:17:23 PM 32.2408 -97.0756 147° Southeast 456 525 26,000 -240 Level Fort Worth Center
Tue 12:18:26 PM 32.1361 -96.9931 146° Southeast 456 525 25,500 -774 Descending Fort Worth Center
Tue 12:19:27 PM 32.0336 -96.9117 146° Southeast 447 514 24,400 -1,073 Descending Fort Worth Center
Tue 12:20:29 PM 31.9336 -96.8339 147° Southeast 439 505 23,300 -672 Descending Fort Worth Center
Tue 12:21:32 PM 31.8150 -96.7414 146° Southeast 430 495 23,000 -144 Descending Fort Worth Center
Tue 12:22:34 PM 31.7206 -96.6683 147° Southeast 412 474 23,000  Level Fort Worth Center
Tue 12:23:36 PM 31.6231 -96.5944 147° Southeast 412 474 23,000  Level Fort Worth Center
Tue 12:24:38 PM 31.5242 -96.5200 147° Southeast 414 476 23,000  Level Fort Worth Center
Tue 12:25:40 PM 31.4133 -96.4711 159° South 424 488 23,000  Level Fort Worth Center
Tue 12:26:22 PM 31.3244 -96.4178 153° Southeast 431 496 23,000  Level Houston Center
Tue 12:27:24 PM 31.2178 -96.3492 151° Southeast 433 498 23,000  Level Houston Center
Tue 12:28:26 PM 31.1108 -96.2806 151° Southeast 436 502 23,000  Level Houston Center
Tue 12:29:28 PM 31.0056 -96.2128 151° Southeast 435 501 23,000  Level Houston Center
Tue 12:30:30 PM 30.9006 -96.1467 152° Southeast 432 497 23,000 -407 Level Houston Center
Tue 12:31:26 PM 30.7906 -96.0764 151° Southeast 426 490 22,200 -1,351 Descending Houston Center
Tue 12:32:21 PM 30.6906 -96.0125 151° Southeast 429 494 20,500 -2,029 Descending Houston Center
Tue 12:32:34 PM 30.6697 -96.0000 153° Southeast 428 493 19,900 -2,129 Descending Houston Center
Tue 12:33:23 PM 30.5886 -95.9492 152° Southeast 413 475 18,300 -1,839 Descending Houston Center
Tue 12:33:36 PM 30.5775 -95.9422 152° Southeast 418 481 18,000 -2,032 Descending Houston Center
Tue 12:34:25 PM 30.4886 -95.8856 151° Southeast 393 452 16,200 -1,742 Descending Houston Center
Tue 12:34:38 PM 30.4814 -95.8803 148° Southeast 404 465 16,200 -1,869 Level Houston Center
Tue 12:35:26 PM 30.4050 -95.8153 144° Southeast 335 386 14,300 -1,905 Descending Houston Center
Tue 12:35:41 PM 30.4017 -95.8075 116° Southeast 371 427 14,200 -1,475 Descending Houston Center
Tue 12:36:27 PM 30.3400 -95.7456 139° Southeast 302 348 12,800 -1,645 Descending Houston Center
Tue 12:36:43 PM 30.3261 -95.7300 136° Southeast 313 360 12,500 -1,377 Descending Houston Center
Tue 12:37:28 PM 30.2775 -95.6803 139° Southeast 293 337 11,400 -1,452 Descending Houston Center
Tue 12:37:45 PM 30.2661 -95.6656 132° Southeast 300 345 11,000 -1,548 Descending Houston Center
Tue 12:38:30 PM 30.2175 -95.6172 139° Southeast 283 326 9,800 -1,355 Descending Houston Center
Tue 12:38:47 PM 30.2081 -95.6053 132° Southeast 287 330 9,600 -1,377 Descending Houston Center
Tue 12:39:31 PM 30.1594 -95.5564 139° Southeast 281 323 8,400 -1,475 Descending Houston Center
Tue 12:39:48 PM 30.1497 -95.5447 134° Southeast 286 329 8,100 -1,065 Descending Houston Center
Tue 12:40:33 PM 30.1017 -95.4981 140° Southeast 254 292 7,300 -857 Descending Houston Center
Tue 12:40:51 PM 30.0956 -95.4883 126° Southeast 271 312 7,200 -689 Descending Houston Center
Tue 12:41:34 PM 30.0931 -95.4242 93° East 241 277 6,600 -774 Descending Houston Center
Tue 12:41:53 PM 30.0936 -95.4125 87° East 247 284 6,400 -677 Descending Houston Center
Tue 12:42:36 PM 30.0983 -95.3439 85° East 248 285 5,900 -290 Descending Houston Center
Tue 12:42:55 PM 30.1006 -95.3183 84° East 246 283 6,100 -393 Climbing Houston Center
Tue 12:43:37 PM 30.1033 -95.2636 87° East 247 284 5,500 -871 Descending Houston Center
Tue 12:43:57 PM 30.1044 -95.2406 87° East 246 283 5,200 -1,082 Descending Houston Center
Tue 12:44:38 PM 30.1075 -95.1931 86° East 215 247 4,400 -1,161 Descending Houston Center
Tue 12:44:59 PM 30.1100 -95.1708 83° East 221 254 4,000 -1,377 Descending Houston Center
Tue 12:45:39 PM 30.1131 -95.1175 86° East 219 252 3,000 -968 Descending Houston Center
Tue 12:46:01 PM 30.1136 -95.1014 88° East 219 252 3,000 -97 Level Houston Center
Tue 12:46:41 PM 30.0994 -95.0611 112° Southeast 194 223 2,900 -98 Descending Houston Center
Tue 12:47:02 PM 30.0869 -95.0589 171° South 205 236 2,900 -871 Level Houston Center
Tue 12:47:43 PM 30.0489 -95.0603 182° South 177 204 2,000 -871 Descending Houston Center
Tue 12:48:04 PM 30.0364 -95.0611 183° South 186 214 2,000 -98 Level Houston Center
Tue 12:48:44 PM 30.0139 -95.0911 229° Southwest 183 211 1,900  Descending Houston Center
Tue 12:49:06 PM 30.0089 -95.1033 245° Southwest 188 216 2,000 98 Climbing Houston Center
Tue 12:49:45 PM 30.0075 -95.1569 268° West 190 219 2,000  Level Houston Center
Tue 12:50:08 PM 30.0069 -95.1767 268° West 188 216 2,000 -97 Level Houston Center
Tue 12:50:47 PM 30.0069 -95.2175 270° West 198 228 1,900 -290 Descending Houston Center
Tue 12:51:10 PM 30.0064 -95.2356 268° West 188 216 1,700 -787 Descending Houston Center
Tue 12:51:48 PM 30.0069 -95.2658 271° West 126 145 1,100 -387 Descending Houston Center
Tue 12:52:12 PM 30.0075 -95.2778 273° West 152 175 1,300 -590 Climbing Houston Center
Tue 12:52:49 PM 30.0069 -95.3117 269° West 132 152 500 -871 Descending Houston Center
Tue 12:53:14 PM 30.0058 -95.3203 262° West 140 161 400 -240 Descending Houston Center

Login

Don't have an account? Register now (free) for customized features, flight alerts, and more!